createdAt,value
2018-02-03T01:43:55.787Z,99887.88
2018-02-03T01:46:22.897Z,99893.84
2018-02-03T01:48:52.517Z,99892.59
2018-02-03T01:51:19.949Z,99887.61
2018-02-03T01:53:48.314Z,99891.83
2018-02-03T01:56:16.818Z,99891.09
2018-02-03T01:58:47.469Z,99893.99
2018-02-03T02:01:14.870Z,99894.61
2018-02-03T02:03:43.527Z,99895.13
2018-02-03T02:06:11.235Z,99893.98
2018-02-03T02:08:39.914Z,99889.20
2018-02-03T02:11:06.832Z,99889.94
2018-02-03T02:13:33.650Z,99888.49
2018-02-03T02:16:00.472Z,99891.83
2018-02-03T02:18:28.259Z,99896.13
2018-02-03T02:20:55.191Z,99898.12
2018-02-03T02:23:23.276Z,99900.56
2018-02-03T02:25:51.994Z,99886.03
2018-02-03T02:28:21.137Z,99894.22
2018-02-03T02:30:48.032Z,99890.20
2018-02-03T02:33:15.576Z,99893.70
2018-02-03T02:35:42.472Z,99885.43
2018-02-03T02:38:09.282Z,99889.30
2018-02-03T02:40:36.149Z,99892.27
2018-02-03T02:43:02.954Z,99889.06
2018-02-03T02:45:29.808Z,99891.73
2018-02-03T02:47:57.367Z,99886.81
2018-02-03T02:50:24.256Z,99886.73
2018-02-03T02:52:51.090Z,99897.27
2018-02-03T02:55:17.951Z,99890.67
2018-02-03T02:57:44.777Z,99888.63
2018-02-03T03:00:11.612Z,99888.00
2018-02-03T03:02:38.431Z,99884.72
2018-02-03T03:05:05.285Z,99887.94
2018-02-03T03:07:32.123Z,99892.14
2018-02-03T03:09:58.948Z,99890.17
2018-02-03T03:12:25.731Z,99887.91
2018-02-03T03:14:52.552Z,99896.98
2018-02-03T03:17:20.176Z,99899.97
2018-02-03T03:19:46.996Z,99892.91
2018-02-03T03:22:14.572Z,99890.02
2018-02-03T03:24:42.081Z,99889.66
2018-02-03T03:27:08.878Z,99890.36
2018-02-03T03:29:35.689Z,99892.14
2018-02-03T03:32:03.352Z,99897.29
2018-02-03T03:34:31.027Z,99894.73
2018-02-03T03:36:58.604Z,99895.33
2018-02-03T03:39:26.226Z,99892.85
2018-02-03T03:41:53.053Z,99888.13
2018-02-03T03:44:19.863Z,99891.33
2018-02-03T03:46:46.747Z,99891.10
2018-02-03T03:49:13.613Z,99890.54
2018-02-03T03:51:41.270Z,99887.63
2018-02-03T03:54:08.144Z,99878.98
2018-02-03T03:56:35.030Z,99880.88
2018-02-03T03:59:02.649Z,99876.23
2018-02-03T04:01:29.530Z,99878.99
2018-02-03T04:03:56.390Z,99879.28
2018-02-03T04:06:23.258Z,99880.73
2018-02-03T04:08:50.187Z,99877.38
2018-02-03T04:11:17.072Z,99880.81
2018-02-03T04:13:43.899Z,99880.58
2018-02-03T04:16:10.756Z,99882.47
2018-02-03T04:18:37.686Z,99878.17
2018-02-03T04:21:05.260Z,99882.45
2018-02-03T04:23:32.080Z,99880.58
2018-02-03T04:25:58.924Z,99875.72
2018-02-03T04:28:25.746Z,99882.67
2018-02-03T04:30:52.598Z,99877.38
2018-02-03T04:33:19.413Z,99878.83
2018-02-03T04:35:46.256Z,99868.02
2018-02-03T04:38:13.138Z,99866.47
2018-02-03T04:40:39.917Z,99865.94
2018-02-03T04:43:06.792Z,99865.56
2018-02-03T04:45:33.622Z,99864.66
2018-02-03T04:48:00.476Z,99857.78
2018-02-03T04:50:27.342Z,99854.58
2018-02-03T04:52:54.202Z,99844.45
2018-02-03T04:55:21.080Z,99850.34
2018-02-03T04:57:47.969Z,99843.81
2018-02-03T05:00:14.850Z,99841.63
2018-02-03T05:02:41.745Z,99845.67
2018-02-03T05:05:08.541Z,99846.92
2018-02-03T05:07:35.351Z,99846.03
2018-02-03T05:10:03.024Z,99851.05
2018-02-03T05:12:30.582Z,99855.20
2018-02-03T05:14:57.476Z,99844.88
2018-02-03T05:17:24.441Z,99846.18
2018-02-03T05:19:51.284Z,99848.94
2018-02-03T05:22:18.155Z,99845.58
2018-02-03T05:24:44.960Z,99841.61
2018-02-03T05:27:11.841Z,99839.59
2018-02-03T05:29:38.657Z,99835.75
2018-02-03T05:32:05.655Z,99833.75
2018-02-03T05:34:32.535Z,99835.00
2018-02-03T05:36:59.367Z,99834.91
2018-02-03T05:39:26.264Z,99823.23
2018-02-03T05:41:53.076Z,99820.83
2018-02-03T05:44:20.889Z,99810.50
2018-02-03T05:46:47.770Z,99815.05
2018-02-03T05:49:14.650Z,99809.71
2018-02-03T05:51:42.279Z,99809.67
2018-02-03T05:54:09.052Z,99804.18
2018-02-03T05:56:35.935Z,99808.08
2018-02-03T05:59:03.475Z,99801.27
2018-02-03T06:01:30.315Z,99806.64
2018-02-03T06:03:57.146Z,99809.95
2018-02-03T06:06:24.714Z,99807.25
2018-02-03T06:08:52.299Z,99808.08
2018-02-03T06:11:19.871Z,99811.48
2018-02-03T06:13:47.446Z,99817.44
2018-02-03T06:16:15.021Z,99823.97
2018-02-03T06:18:41.848Z,99818.11
2018-02-03T06:21:08.674Z,99819.66
2018-02-03T06:23:35.538Z,99820.02
2018-02-03T06:26:02.386Z,99815.72
2018-02-03T06:28:29.241Z,99819.79
2018-02-03T06:30:56.845Z,99817.09
2018-02-03T06:33:23.688Z,99816.11
2018-02-03T06:35:50.520Z,99813.88
2018-02-03T06:38:17.620Z,99807.75
2018-02-03T06:40:44.538Z,99813.11
2018-02-03T06:43:12.286Z,99816.42
2018-02-03T06:45:39.223Z,99812.63
2018-02-03T06:48:06.147Z,99815.26
2018-02-03T06:50:33.088Z,99823.60
2018-02-03T06:53:00.035Z,99825.42
2018-02-03T06:55:26.925Z,99826.45
2018-02-03T06:57:53.712Z,99817.75
2018-02-03T07:00:20.557Z,99825.03
2018-02-03T07:02:47.827Z,99821.34
2018-02-03T07:05:14.704Z,99823.55
2018-02-03T07:07:42.274Z,99827.77
2018-02-03T07:10:09.153Z,99826.51
2018-02-03T07:12:36.771Z,99825.95
2018-02-03T07:15:03.593Z,99835.45
2018-02-03T07:17:31.309Z,99825.53
2018-02-03T07:19:58.174Z,99834.59
2018-02-03T07:22:25.084Z,99842.72
2018-02-03T07:24:52.027Z,99844.08
2018-02-03T07:27:18.918Z,99840.45
2018-02-03T07:29:45.903Z,99845.52
2018-02-03T07:32:12.771Z,99844.16
2018-02-03T07:34:39.607Z,99845.32
2018-02-03T07:37:07.223Z,99836.30
2018-02-03T07:39:34.156Z,99841.75
2018-02-03T07:42:01.776Z,99840.97
2018-02-03T07:44:28.618Z,99839.65
2018-02-03T07:46:55.432Z,99836.77
2018-02-03T07:49:22.315Z,99831.89
2018-02-03T07:51:49.989Z,99833.27
2018-02-03T07:54:17.563Z,99835.16
2018-02-03T07:56:44.370Z,99835.50
2018-02-03T07:59:11.229Z,99832.98
2018-02-03T08:01:38.039Z,99831.64
2018-02-03T08:04:04.874Z,99831.59
2018-02-03T08:06:31.702Z,99831.64
2018-02-03T08:08:58.670Z,99832.11
2018-02-03T08:11:25.547Z,99828.23
2018-02-03T08:13:52.425Z,99826.66
2018-02-03T08:16:19.269Z,99826.36
2018-02-03T08:18:46.201Z,99825.06
2018-02-03T08:21:13.171Z,99826.60
2018-02-03T08:23:40.122Z,99831.83
2018-02-03T08:26:07.816Z,99823.58
2018-02-03T08:28:34.799Z,99821.51
2018-02-03T08:31:01.772Z,99820.67
2018-02-03T08:33:28.827Z,99823.67
2018-02-03T08:35:56.025Z,99822.30
2018-02-03T08:38:23.057Z,99819.08
2018-02-03T08:40:50.128Z,99822.20
2018-02-03T08:43:17.114Z,99820.54
2018-02-03T08:45:44.099Z,99816.53
2018-02-03T08:48:11.128Z,99817.26
2018-02-03T08:50:38.062Z,99817.27
2018-02-03T08:53:04.946Z,99810.66
2018-02-03T08:55:31.936Z,99808.48
2018-02-03T08:57:59.147Z,99811.98
2018-02-03T09:00:26.931Z,99810.27
2018-02-03T09:02:53.912Z,99808.37
2018-02-03T09:05:20.899Z,99810.14
2018-02-03T09:07:47.854Z,99811.37
2018-02-03T09:10:15.109Z,99810.16
2018-02-03T09:12:42.306Z,99803.33
2018-02-03T09:15:09.302Z,99808.63
2018-02-03T09:17:36.350Z,99809.52
2018-02-03T09:20:04.007Z,99806.66
2018-02-03T09:22:31.019Z,99806.28
2018-02-03T09:24:58.745Z,99802.36
2018-02-03T09:27:25.584Z,99797.72
2018-02-03T09:29:53.218Z,99796.94
2018-02-03T09:32:20.053Z,99795.92
2018-02-03T09:34:47.734Z,99795.47
2018-02-03T09:37:14.735Z,99804.86
2018-02-03T09:39:41.577Z,99801.37
2018-02-03T09:42:08.466Z,99800.74
2018-02-03T09:44:35.284Z,99797.86
2018-02-03T09:47:02.167Z,99795.50
2018-02-03T09:49:29.001Z,99795.92
2018-02-03T09:51:56.610Z,99796.98
2018-02-03T09:54:23.435Z,99786.08
2018-02-03T09:56:50.278Z,99790.72
2018-02-03T09:59:17.129Z,99790.47
2018-02-03T10:01:44.873Z,99795.45
2018-02-03T10:04:11.770Z,99795.36
2018-02-03T10:06:39.440Z,99783.48
2018-02-03T10:09:06.297Z,99792.30
2018-02-03T10:11:33.190Z,99798.22
2018-02-03T10:14:00.068Z,99803.65
2018-02-03T10:16:26.931Z,99791.91
2018-02-03T10:18:53.775Z,99795.84
2018-02-03T10:21:20.741Z,99799.14
2018-02-03T10:23:47.582Z,99794.86
2018-02-03T10:26:15.172Z,99796.12
2018-02-03T10:28:42.000Z,99795.31
2018-02-03T10:31:08.875Z,99797.58
2018-02-03T10:33:36.472Z,99795.02
2018-02-03T10:36:04.065Z,99795.53
2018-02-03T10:38:30.900Z,99799.79
2018-02-03T10:40:58.509Z,99797.27
2018-02-03T10:43:25.412Z,99799.02
2018-02-03T10:45:52.249Z,99798.25
2018-02-03T10:48:19.123Z,99800.56
2018-02-03T10:50:46.004Z,99792.55
2018-02-03T10:53:12.901Z,99791.56
2018-02-03T10:55:40.013Z,99789.48
2018-02-03T10:58:06.856Z,99785.45
2018-02-03T11:56:25.944Z,99755.27
2018-02-03T11:58:52.859Z,99755.47
2018-02-03T12:01:20.523Z,99747.92
2018-02-03T12:03:47.401Z,99746.38
2018-02-03T12:06:14.291Z,99741.67
2018-02-03T12:08:41.145Z,99739.64
2018-02-03T12:11:08.123Z,99736.88
2018-02-03T12:13:35.741Z,99737.73
2018-02-03T12:16:05.013Z,99735.09
2018-02-03T12:18:31.892Z,99736.69
2018-02-03T12:20:58.734Z,99735.98
2018-02-03T12:23:25.605Z,99735.41
2018-02-03T12:25:52.455Z,99727.16
2018-02-03T12:28:19.303Z,99723.68
2018-02-03T12:30:46.206Z,99717.70
2018-02-03T12:33:16.150Z,99719.68
2018-02-03T12:35:45.883Z,99722.43
2018-02-03T12:38:12.788Z,99719.55
2018-02-03T12:40:40.442Z,99716.82
2018-02-03T12:43:07.326Z,99715.00
2018-02-03T12:45:35.008Z,99714.91
2018-02-03T12:48:01.972Z,99715.82
2018-02-03T12:50:28.955Z,99712.66
2018-02-03T12:52:55.886Z,99702.52
2018-02-03T12:55:23.571Z,99700.93
2018-02-03T12:57:51.285Z,99703.39
2018-02-03T13:00:18.244Z,99698.58
2018-02-03T13:02:45.283Z,99696.03
2018-02-03T13:05:12.951Z,99689.41
2018-02-03T13:07:41.887Z,99692.59
2018-02-03T13:10:08.860Z,99683.48
2018-02-03T13:12:35.776Z,99681.09
2018-02-03T13:15:02.700Z,99672.85
2018-02-03T13:17:29.525Z,99679.19
2018-02-03T13:19:57.315Z,99682.59
2018-02-03T13:22:24.973Z,99679.39
2018-02-03T13:24:52.665Z,99686.00
2018-02-03T13:27:20.319Z,99673.39
2018-02-03T13:29:47.352Z,99677.73
2018-02-03T13:32:14.991Z,99673.73
2018-02-03T13:34:43.669Z,99668.90
2018-02-03T13:37:10.697Z,99667.30
2018-02-03T13:39:38.977Z,99662.86
2018-02-03T13:42:06.081Z,99673.27
2018-02-03T13:44:34.269Z,99674.95
2018-02-03T13:47:02.329Z,99670.88
2018-02-03T13:49:29.607Z,99675.02
2018-02-03T13:51:58.487Z,99676.87
2018-02-03T14:07:29.148Z,99671.31
2018-02-03T14:09:55.979Z,99668.64
2018-02-03T14:12:24.774Z,99665.37
2018-02-03T14:14:52.578Z,99668.48
2018-02-03T14:17:21.086Z,99670.59
2018-02-03T14:19:48.013Z,99661.46
2018-02-03T14:22:14.918Z,99676.13
2018-02-03T14:24:47.658Z,99671.87
2018-02-03T14:27:14.497Z,99675.63
2018-02-03T14:29:42.081Z,99674.92
2018-02-03T14:32:08.938Z,99670.04
2018-02-03T14:34:35.751Z,99671.38
2018-02-03T14:37:02.731Z,99670.33
2018-02-03T14:39:29.676Z,99666.16
2018-02-03T14:41:56.577Z,99661.30
2018-02-03T14:44:23.548Z,99656.78
2018-02-03T14:46:50.515Z,99669.41
2018-02-03T14:49:17.395Z,99664.40
2018-02-03T14:51:44.340Z,99669.02
2018-02-03T14:54:12.149Z,99667.98
2018-02-03T14:56:40.523Z,99674.45
2018-02-03T14:59:08.142Z,99670.47
2018-02-03T15:01:35.829Z,99675.73
2018-02-03T15:04:02.944Z,99682.50
2018-02-03T15:06:30.796Z,99682.92
2018-02-03T15:08:58.188Z,99684.02
2018-02-03T15:11:27.025Z,99686.02
2018-02-03T15:13:54.007Z,99682.44
2018-02-03T15:16:20.951Z,99692.48
2018-02-03T15:18:47.836Z,99684.38
2018-02-03T15:21:28.290Z,99688.87
2018-02-03T15:23:55.441Z,99686.86
2018-02-03T15:26:22.597Z,99685.61
2018-02-03T15:28:52.322Z,99686.81
2018-02-03T15:31:19.617Z,99686.81
2018-02-03T15:33:47.115Z,99690.26
2018-02-03T15:36:15.210Z,99686.69
2018-02-03T15:38:42.758Z,99680.93
2018-02-03T15:41:10.077Z,99683.95
2018-02-03T15:43:38.085Z,99681.97
2018-02-03T15:46:05.704Z,99685.11
2018-02-03T15:48:41.508Z,99682.75
2018-02-03T16:15:29.447Z,99689.37
2018-02-03T16:17:58.365Z,99691.73
2018-02-03T16:20:29.168Z,99692.08
2018-02-03T16:22:57.374Z,99692.86
2018-02-03T16:25:30.018Z,99695.23
2018-02-03T16:28:02.506Z,99699.31
2018-02-03T16:30:30.356Z,99692.45
2018-02-03T16:32:57.760Z,99695.81
2018-02-03T16:35:25.285Z,99700.11
2018-02-03T16:37:52.888Z,99702.91
2018-02-03T16:40:20.693Z,99704.80
2018-02-03T16:42:48.216Z,99707.45
2018-02-03T16:45:15.806Z,99708.48
2018-02-03T16:47:43.271Z,99712.32
2018-02-03T16:50:10.543Z,99710.55
2018-02-03T16:52:39.549Z,99706.72
2018-02-03T16:55:06.662Z,99709.84
2018-02-03T16:57:34.388Z,99711.17
2018-02-03T17:00:02.605Z,99713.70
2018-02-03T17:02:31.075Z,99714.39
2018-02-03T17:04:58.429Z,99715.31
2018-02-03T17:07:26.076Z,99723.11
2018-02-03T17:09:53.040Z,99725.08
2018-02-03T17:12:20.024Z,99729.95
2018-02-03T17:14:47.023Z,99726.66
2018-02-03T17:17:14.287Z,99727.57
2018-02-03T17:19:42.328Z,99730.20
2018-02-03T17:22:10.186Z,99730.43
2018-02-03T17:24:38.438Z,99728.90
2018-02-03T17:27:05.460Z,99729.31
2018-02-03T17:29:32.845Z,99739.77
2018-02-03T17:32:00.486Z,99737.25
2018-02-03T17:34:27.389Z,99738.66
2018-02-03T17:37:00.322Z,99736.03
2018-02-03T17:39:27.536Z,99743.10
2018-02-03T17:41:55.185Z,99740.56
2018-02-03T17:44:23.728Z,99743.16
2018-02-03T17:46:57.890Z,99744.20
2018-02-03T17:49:24.854Z,99742.56
2018-02-03T17:51:52.689Z,99741.52
2018-02-03T17:54:19.842Z,99751.91
2018-02-03T18:28:14.290Z,99762.73
2018-02-03T18:30:42.484Z,99772.62
2018-02-03T18:33:10.134Z,99778.95
2018-02-03T18:35:37.579Z,99782.52
2018-02-03T18:38:06.844Z,99782.94
2018-02-03T18:40:34.037Z,99789.23
2018-02-03T18:43:00.929Z,99784.66
2018-02-03T18:45:46.937Z,99790.88
2018-02-03T18:48:14.418Z,99779.73
2018-02-03T18:50:41.628Z,99792.98
2018-02-03T18:53:08.535Z,99792.56
2018-02-03T18:55:35.493Z,99791.27
2018-02-03T18:58:03.731Z,99791.39
2018-02-03T19:00:31.219Z,99791.17
2018-02-03T19:03:02.618Z,99797.41
2018-02-03T19:05:30.253Z,99801.83
2018-02-03T19:07:57.402Z,99802.87
2018-02-03T19:10:24.307Z,99803.06
2018-02-03T19:12:51.258Z,99806.55
2018-02-03T19:15:18.393Z,99814.16
2018-02-03T19:17:45.365Z,99810.11
2018-02-03T19:20:12.643Z,99812.36
2018-02-03T19:22:40.745Z,99822.59
2018-02-03T19:25:08.443Z,99815.50
2018-02-03T19:27:35.399Z,99816.77
2018-02-03T19:30:02.439Z,99818.59
2018-02-03T19:32:30.884Z,99828.02
2018-02-03T19:34:58.575Z,99827.08
2018-02-03T19:37:26.438Z,99830.57
2018-02-03T19:39:55.640Z,99825.09
2018-02-03T19:42:23.910Z,99827.67
2018-02-03T19:44:52.518Z,99834.88
2018-02-03T19:47:19.888Z,99835.63
2018-02-03T19:49:46.991Z,99831.45
2018-02-03T19:52:14.862Z,99835.64
2018-02-03T19:54:42.723Z,99834.19
2018-02-03T19:57:11.299Z,99841.36
2018-02-03T19:59:38.657Z,99837.02
2018-02-03T20:02:06.597Z,99837.23
2018-02-03T20:04:34.430Z,99841.03
2018-02-03T20:07:02.945Z,99848.20
2018-02-03T20:09:31.929Z,99840.21
2018-02-03T20:12:00.695Z,99842.76
2018-02-03T20:14:29.344Z,99843.05
2018-02-03T20:16:57.830Z,99845.62
2018-02-03T20:19:26.942Z,99847.87
2018-02-03T20:21:56.484Z,99848.59
2018-02-03T20:24:25.268Z,99853.04
2018-02-03T20:26:54.120Z,99857.83
2018-02-03T20:29:22.894Z,99864.34
2018-02-03T20:31:51.647Z,99865.09
2018-02-03T20:34:19.338Z,99874.83
2018-02-03T20:36:48.027Z,99865.05
2018-02-03T20:39:16.784Z,99874.08
2018-02-03T20:41:45.587Z,99876.32
2018-02-03T20:44:13.800Z,99870.16
2018-02-03T20:46:42.646Z,99875.75
2018-02-03T20:49:10.754Z,99882.67
2018-02-03T20:51:39.630Z,99881.39
2018-02-03T20:54:08.224Z,99883.75
2018-02-03T20:56:38.575Z,99883.23
2018-02-03T20:59:08.297Z,99886.15
2018-02-03T21:01:37.256Z,99886.23
2018-02-03T21:04:06.328Z,99887.57
2018-02-03T21:06:35.247Z,99899.14
2018-02-03T21:09:04.518Z,99896.27
2018-02-03T21:11:31.977Z,99898.22
2018-02-03T21:14:00.746Z,99898.28
2018-02-03T21:16:29.525Z,99904.60
2018-02-03T21:18:57.234Z,99907.68
2018-02-03T21:21:26.031Z,99906.65
2018-02-03T21:23:55.541Z,99907.59
2018-02-03T21:26:24.495Z,99918.73
2018-02-03T21:28:52.933Z,99915.47
2018-02-03T21:52:45.472Z,99987.66
2018-02-03T21:55:14.037Z,99993.64
2018-02-03T21:57:42.479Z,99998.92
2018-02-03T22:00:10.218Z,100002.47
2018-02-03T22:02:38.413Z,100016.91
2018-02-03T22:05:07.324Z,100017.33
2018-02-03T22:07:35.856Z,100022.09
2018-02-03T22:10:04.026Z,100026.84
2018-02-03T22:12:31.903Z,100034.54
2018-02-03T22:14:59.074Z,100049.16
2018-02-03T22:17:26.930Z,100054.75
2018-02-03T22:19:54.645Z,100056.28
2018-02-03T22:22:21.730Z,100060.91
2018-02-03T22:24:48.678Z,100059.78
2018-02-03T22:27:15.623Z,100070.26
2018-02-03T22:29:43.365Z,100076.35
2018-02-03T22:32:10.892Z,100087.73
2018-02-03T22:34:38.065Z,100086.98
2018-02-03T22:37:04.872Z,100090.21
2018-02-03T22:39:33.051Z,100097.11
2018-02-03T22:42:00.242Z,100100.72
2018-02-03T22:44:27.750Z,100096.30
2018-02-03T22:46:55.773Z,100101.70
2018-02-03T22:49:22.775Z,100104.50
2018-02-03T22:51:50.335Z,100108.84
2018-02-03T22:54:17.512Z,100107.59
2018-02-03T22:56:44.916Z,100104.06
2018-02-03T22:59:12.276Z,100115.06
2018-02-03T23:01:39.151Z,100115.48
2018-02-03T23:04:06.419Z,100120.62
2018-02-03T23:06:33.675Z,100125.73
2018-02-03T23:09:00.787Z,100125.53
2018-02-03T23:11:27.882Z,100130.23
2018-02-03T23:13:55.533Z,100129.54
2018-02-03T23:16:22.952Z,100135.14
2018-02-03T23:18:50.528Z,100142.67
2018-02-03T23:21:18.095Z,100147.98
2018-02-03T23:23:45.957Z,100147.73
2018-02-03T23:26:13.483Z,100152.72
2018-02-03T23:28:40.693Z,100160.98
2018-02-03T23:31:08.854Z,100170.28
2018-02-03T23:33:36.168Z,100168.38
2018-02-03T23:36:02.977Z,100167.34
2018-02-03T23:38:30.306Z,100170.23
2018-02-03T23:40:57.118Z,100179.63
2018-02-03T23:43:24.026Z,100187.40
2018-02-03T23:45:52.403Z,100182.67
2018-02-03T23:48:20.260Z,100190.66
2018-02-03T23:50:48.930Z,100200.77
